sensor_id;sensor_type;location;lat;lon;timestamp;P1;durP1;ratioP1;P2;durP2;ratioP2
52057;SDS011;38063;53.210;6.504;2024-02-21T00:00:47;23.15;;;4.30;;
52057;SDS011;38063;53.210;6.504;2024-02-21T00:03:13;14.52;;;3.58;;
52057;SDS011;38063;53.210;6.504;2024-02-21T00:05:38;14.10;;;3.88;;
52057;SDS011;38063;53.210;6.504;2024-02-21T00:08:04;14.07;;;3.20;;
52057;SDS011;38063;53.210;6.504;2024-02-21T00:10:30;17.40;;;3.67;;
52057;SDS011;38063;53.210;6.504;2024-02-21T00:12:57;13.80;;;4.07;;
52057;SDS011;38063;53.210;6.504;2024-02-21T00:15:24;12.60;;;3.70;;
52057;SDS011;38063;53.210;6.504;2024-02-21T00:17:50;13.18;;;3.00;;
52057;SDS011;38063;53.210;6.504;2024-02-21T00:20:16;13.20;;;4.05;;
52057;SDS011;38063;53.210;6.504;2024-02-21T00:22:42;10.35;;;3.47;;
52057;SDS011;38063;53.210;6.504;2024-02-21T00:25:09;20.00;;;3.40;;
52057;SDS011;38063;53.210;6.504;2024-02-21T00:27:35;14.15;;;3.30;;
52057;SDS011;38063;53.210;6.504;2024-02-21T00:30:01;15.13;;;3.25;;
52057;SDS011;38063;53.210;6.504;2024-02-21T00:32:27;15.15;;;3.13;;
52057;SDS011;38063;53.210;6.504;2024-02-21T00:34:53;15.55;;;3.20;;
52057;SDS011;38063;53.210;6.504;2024-02-21T00:37:18;16.25;;;3.78;;
52057;SDS011;38063;53.210;6.504;2024-02-21T00:39:44;22.65;;;4.68;;
52057;SDS011;38063;53.210;6.504;2024-02-21T00:42:10;17.17;;;3.92;;
52057;SDS011;38063;53.210;6.504;2024-02-21T00:44:35;18.95;;;4.32;;
52057;SDS011;38063;53.210;6.504;2024-02-21T00:47:01;20.50;;;4.28;;
52057;SDS011;38063;53.210;6.504;2024-02-21T00:49:27;16.25;;;3.80;;
52057;SDS011;38063;53.210;6.504;2024-02-21T00:51:52;17.52;;;4.43;;
52057;SDS011;38063;53.210;6.504;2024-02-21T00:54:18;20.23;;;4.38;;
52057;SDS011;38063;53.210;6.504;2024-02-21T00:56:43;17.20;;;4.25;;
52057;SDS011;38063;53.210;6.504;2024-02-21T00:59:09;18.25;;;4.20;;
52057;SDS011;38063;53.210;6.504;2024-02-21T01:01:35;30.13;;;5.10;;
52057;SDS011;38063;53.210;6.504;2024-02-21T01:04:00;23.00;;;4.43;;
52057;SDS011;38063;53.210;6.504;2024-02-21T01:06:26;16.65;;;4.85;;
52057;SDS011;38063;53.210;6.504;2024-02-21T01:08:51;21.15;;;4.68;;
52057;SDS011;38063;53.210;6.504;2024-02-21T01:11:17;22.27;;;5.25;;
52057;SDS011;38063;53.210;6.504;2024-02-21T01:13:43;22.80;;;4.88;;
52057;SDS011;38063;53.210;6.504;2024-02-21T01:16:09;19.52;;;6.60;;
52057;SDS011;38063;53.210;6.504;2024-02-21T01:18:36;17.13;;;5.00;;
52057;SDS011;38063;53.210;6.504;2024-02-21T01:21:02;21.42;;;5.20;;
52057;SDS011;38063;53.210;6.504;2024-02-21T01:23:32;20.48;;;4.93;;
52057;SDS011;38063;53.210;6.504;2024-02-21T01:25:58;20.13;;;5.05;;
52057;SDS011;38063;53.210;6.504;2024-02-21T01:28:23;23.48;;;5.13;;
52057;SDS011;38063;53.210;6.504;2024-02-21T01:30:49;20.40;;;5.63;;
52057;SDS011;38063;53.210;6.504;2024-02-21T01:33:15;25.77;;;5.95;;
52057;SDS011;38063;53.210;6.504;2024-02-21T01:35:41;20.35;;;5.82;;
52057;SDS011;38063;53.210;6.504;2024-02-21T01:38:06;19.65;;;5.63;;
52057;SDS011;38063;53.210;6.504;2024-02-21T01:40:32;25.67;;;5.57;;
52057;SDS011;38063;53.210;6.504;2024-02-21T01:42:57;16.55;;;5.40;;
52057;SDS011;38063;53.210;6.504;2024-02-21T01:45:23;20.45;;;5.38;;
52057;SDS011;38063;53.210;6.504;2024-02-21T01:47:49;16.70;;;5.40;;
52057;SDS011;38063;53.210;6.504;2024-02-21T01:50:15;13.15;;;5.68;;
52057;SDS011;38063;53.210;6.504;2024-02-21T01:52:42;16.52;;;5.28;;
52057;SDS011;38063;53.210;6.504;2024-02-21T01:55:11;12.43;;;5.38;;
52057;SDS011;38063;53.210;6.504;2024-02-21T01:57:39;18.05;;;5.38;;
52057;SDS011;38063;53.210;6.504;2024-02-21T02:00:06;17.45;;;5.57;;
52057;SDS011;38063;53.210;6.504;2024-02-21T02:02:33;19.20;;;5.57;;
52057;SDS011;38063;53.210;6.504;2024-02-21T02:04:59;24.20;;;5.82;;
52057;SDS011;38063;53.210;6.504;2024-02-21T02:07:25;11.70;;;4.93;;
52057;SDS011;38063;53.210;6.504;2024-02-21T02:09:51;17.23;;;5.28;;
52057;SDS011;38063;53.210;6.504;2024-02-21T02:12:17;16.58;;;5.13;;
52057;SDS011;38063;53.210;6.504;2024-02-21T02:14:42;18.08;;;4.95;;
52057;SDS011;38063;53.210;6.504;2024-02-21T02:17:08;16.73;;;5.63;;
52057;SDS011;38063;53.210;6.504;2024-02-21T02:19:35;20.83;;;5.03;;
52057;SDS011;38063;53.210;6.504;2024-02-21T02:22:03;11.27;;;4.63;;
52057;SDS011;38063;53.210;6.504;2024-02-21T02:24:40;13.45;;;4.38;;
52057;SDS011;38063;53.210;6.504;2024-02-21T02:27:05;13.80;;;4.90;;
52057;SDS011;38063;53.210;6.504;2024-02-21T02:29:32;17.48;;;5.47;;
52057;SDS011;38063;53.210;6.504;2024-02-21T02:31:58;18.48;;;4.75;;
52057;SDS011;38063;53.210;6.504;2024-02-21T02:34:23;16.60;;;4.22;;
52057;SDS011;38063;53.210;6.504;2024-02-21T02:36:49;16.02;;;4.65;;
52057;SDS011;38063;53.210;6.504;2024-02-21T02:39:15;19.35;;;5.55;;
52057;SDS011;38063;53.210;6.504;2024-02-21T02:41:40;15.63;;;5.10;;
52057;SDS011;38063;53.210;6.504;2024-02-21T02:44:06;30.58;;;5.47;;
52057;SDS011;38063;53.210;6.504;2024-02-21T02:46:31;18.75;;;5.10;;
52057;SDS011;38063;53.210;6.504;2024-02-21T02:48:57;18.55;;;4.90;;
52057;SDS011;38063;53.210;6.504;2024-02-21T02:51:23;24.20;;;5.05;;
52057;SDS011;38063;53.210;6.504;2024-02-21T02:53:48;19.40;;;5.18;;
52057;SDS011;38063;53.210;6.504;2024-02-21T02:56:14;18.85;;;5.88;;
52057;SDS011;38063;53.210;6.504;2024-02-21T02:58:41;29.17;;;6.20;;
52057;SDS011;38063;53.210;6.504;2024-02-21T03:01:07;23.15;;;5.15;;
52057;SDS011;38063;53.210;6.504;2024-02-21T03:03:34;22.95;;;5.13;;
52057;SDS011;38063;53.210;6.504;2024-02-21T03:06:00;19.13;;;5.80;;
52057;SDS011;38063;53.210;6.504;2024-02-21T03:08:26;23.67;;;5.50;;
52057;SDS011;38063;53.210;6.504;2024-02-21T03:10:51;22.15;;;5.18;;
52057;SDS011;38063;53.210;6.504;2024-02-21T03:13:17;27.35;;;5.88;;
52057;SDS011;38063;53.210;6.504;2024-02-21T03:15:42;25.58;;;5.85;;
52057;SDS011;38063;53.210;6.504;2024-02-21T03:18:08;25.27;;;6.13;;
52057;SDS011;38063;53.210;6.504;2024-02-21T03:20:34;25.65;;;6.65;;
52057;SDS011;38063;53.210;6.504;2024-02-21T03:22:59;25.25;;;4.88;;
52057;SDS011;38063;53.210;6.504;2024-02-21T03:25:25;22.02;;;5.22;;
52057;SDS011;38063;53.210;6.504;2024-02-21T03:27:51;26.27;;;5.07;;
52057;SDS011;38063;53.210;6.504;2024-02-21T03:30:16;27.23;;;5.55;;
52057;SDS011;38063;53.210;6.504;2024-02-21T03:32:42;26.65;;;6.03;;
52057;SDS011;38063;53.210;6.504;2024-02-21T03:35:08;27.20;;;5.43;;
52057;SDS011;38063;53.210;6.504;2024-02-21T03:37:33;26.27;;;5.82;;
52057;SDS011;38063;53.210;6.504;2024-02-21T03:39:59;21.02;;;6.20;;
52057;SDS011;38063;53.210;6.504;2024-02-21T03:42:25;24.00;;;6.30;;
52057;SDS011;38063;53.210;6.504;2024-02-21T03:44:50;24.20;;;6.32;;
52057;SDS011;38063;53.210;6.504;2024-02-21T03:47:16;27.95;;;5.63;;
52057;SDS011;38063;53.210;6.504;2024-02-21T03:49:42;25.77;;;6.05;;
52057;SDS011;38063;53.210;6.504;2024-02-21T03:52:07;26.20;;;6.03;;
52057;SDS011;38063;53.210;6.504;2024-02-21T03:54:34;18.42;;;5.30;;
52057;SDS011;38063;53.210;6.504;2024-02-21T03:56:59;30.65;;;6.90;;
52057;SDS011;38063;53.210;6.504;2024-02-21T03:59:25;25.88;;;5.47;;
52057;SDS011;38063;53.210;6.504;2024-02-21T04:01:51;21.65;;;5.50;;
52057;SDS011;38063;53.210;6.504;2024-02-21T04:04:18;27.75;;;6.18;;
52057;SDS011;38063;53.210;6.504;2024-02-21T04:06:49;37.25;;;5.63;;
52057;SDS011;38063;53.210;6.504;2024-02-21T04:09:16;30.40;;;6.80;;
52057;SDS011;38063;53.210;6.504;2024-02-21T04:11:42;23.67;;;5.78;;
52057;SDS011;38063;53.210;6.504;2024-02-21T04:14:07;24.10;;;6.07;;
52057;SDS011;38063;53.210;6.504;2024-02-21T04:16:34;28.55;;;6.22;;
52057;SDS011;38063;53.210;6.504;2024-02-21T04:19:00;32.00;;;7.28;;
52057;SDS011;38063;53.210;6.504;2024-02-21T04:21:27;25.17;;;6.53;;
52057;SDS011;38063;53.210;6.504;2024-02-21T04:23:53;26.15;;;6.15;;
52057;SDS011;38063;53.210;6.504;2024-02-21T04:26:18;34.65;;;6.63;;
52057;SDS011;38063;53.210;6.504;2024-02-21T04:28:47;22.17;;;6.35;;
52057;SDS011;38063;53.210;6.504;2024-02-21T04:31:13;25.77;;;6.50;;
52057;SDS011;38063;53.210;6.504;2024-02-21T04:33:38;25.98;;;6.57;;
52057;SDS011;38063;53.210;6.504;2024-02-21T04:36:04;24.50;;;6.38;;
52057;SDS011;38063;53.210;6.504;2024-02-21T04:38:30;26.73;;;6.28;;
52057;SDS011;38063;53.210;6.504;2024-02-21T04:40:56;27.55;;;6.30;;
52057;SDS011;38063;53.210;6.504;2024-02-21T04:43:23;33.40;;;6.22;;
52057;SDS011;38063;53.210;6.504;2024-02-21T04:45:52;27.63;;;6.35;;
52057;SDS011;38063;53.210;6.504;2024-02-21T04:48:18;27.20;;;6.53;;
52057;SDS011;38063;53.210;6.504;2024-02-21T04:50:44;23.60;;;6.47;;
52057;SDS011;38063;53.210;6.504;2024-02-21T04:53:10;24.38;;;6.07;;
52057;SDS011;38063;53.210;6.504;2024-02-21T04:55:36;26.52;;;6.68;;
52057;SDS011;38063;53.210;6.504;2024-02-21T04:58:01;23.38;;;6.07;;
52057;SDS011;38063;53.210;6.504;2024-02-21T05:00:27;28.20;;;6.45;;
52057;SDS011;38063;53.210;6.504;2024-02-21T05:02:53;30.95;;;6.10;;
52057;SDS011;38063;53.210;6.504;2024-02-21T05:05:18;28.83;;;6.75;;
52057;SDS011;38063;53.210;6.504;2024-02-21T05:07:44;30.20;;;6.13;;
52057;SDS011;38063;53.210;6.504;2024-02-21T05:10:10;28.67;;;6.43;;
52057;SDS011;38063;53.210;6.504;2024-02-21T05:12:36;28.25;;;5.75;;
52057;SDS011;38063;53.210;6.504;2024-02-21T05:15:01;25.52;;;5.63;;
52057;SDS011;38063;53.210;6.504;2024-02-21T05:17:28;25.35;;;6.35;;
52057;SDS011;38063;53.210;6.504;2024-02-21T05:19:54;23.65;;;6.35;;
52057;SDS011;38063;53.210;6.504;2024-02-21T05:22:19;21.98;;;5.72;;
52057;SDS011;38063;53.210;6.504;2024-02-21T05:24:45;26.33;;;6.35;;
52057;SDS011;38063;53.210;6.504;2024-02-21T05:27:11;30.30;;;6.25;;
52057;SDS011;38063;53.210;6.504;2024-02-21T05:29:36;32.88;;;6.22;;
52057;SDS011;38063;53.210;6.504;2024-02-21T05:32:02;26.98;;;6.07;;
52057;SDS011;38063;53.210;6.504;2024-02-21T05:34:28;19.90;;;5.80;;
52057;SDS011;38063;53.210;6.504;2024-02-21T05:36:53;28.05;;;6.13;;
52057;SDS011;38063;53.210;6.504;2024-02-21T05:39:19;31.60;;;5.70;;
52057;SDS011;38063;53.210;6.504;2024-02-21T05:41:47;33.35;;;6.30;;
52057;SDS011;38063;53.210;6.504;2024-02-21T05:44:13;21.67;;;6.82;;
52057;SDS011;38063;53.210;6.504;2024-02-21T05:46:39;28.15;;;6.43;;
52057;SDS011;38063;53.210;6.504;2024-02-21T05:49:04;22.73;;;7.00;;
52057;SDS011;38063;53.210;6.504;2024-02-21T05:51:32;36.13;;;6.15;;
52057;SDS011;38063;53.210;6.504;2024-02-21T05:53:58;23.70;;;5.53;;
52057;SDS011;38063;53.210;6.504;2024-02-21T05:56:24;34.85;;;7.47;;
52057;SDS011;38063;53.210;6.504;2024-02-21T05:58:49;25.88;;;6.55;;
52057;SDS011;38063;53.210;6.504;2024-02-21T06:01:15;23.48;;;6.82;;
52057;SDS011;38063;53.210;6.504;2024-02-21T06:03:41;19.95;;;6.50;;
52057;SDS011;38063;53.210;6.504;2024-02-21T06:06:06;21.20;;;6.30;;
52057;SDS011;38063;53.210;6.504;2024-02-21T06:08:32;24.48;;;6.43;;
52057;SDS011;38063;53.210;6.504;2024-02-21T06:10:58;31.92;;;6.93;;
52057;SDS011;38063;53.210;6.504;2024-02-21T06:13:23;27.70;;;6.65;;
52057;SDS011;38063;53.210;6.504;2024-02-21T06:15:49;25.23;;;6.65;;
52057;SDS011;38063;53.210;6.504;2024-02-21T06:18:18;27.42;;;6.55;;
52057;SDS011;38063;53.210;6.504;2024-02-21T06:20:45;24.20;;;6.32;;
52057;SDS011;38063;53.210;6.504;2024-02-21T06:23:14;21.17;;;6.78;;
52057;SDS011;38063;53.210;6.504;2024-02-21T06:25:41;31.10;;;6.60;;
52057;SDS011;38063;53.210;6.504;2024-02-21T06:28:07;25.02;;;6.57;;
52057;SDS011;38063;53.210;6.504;2024-02-21T06:30:33;28.88;;;6.88;;
52057;SDS011;38063;53.210;6.504;2024-02-21T06:32:59;21.35;;;6.25;;
52057;SDS011;38063;53.210;6.504;2024-02-21T06:35:25;23.83;;;6.05;;
52057;SDS011;38063;53.210;6.504;2024-02-21T06:37:51;32.08;;;6.55;;
52057;SDS011;38063;53.210;6.504;2024-02-21T06:40:17;26.52;;;6.70;;
52057;SDS011;38063;53.210;6.504;2024-02-21T06:42:46;18.52;;;6.85;;
52057;SDS011;38063;53.210;6.504;2024-02-21T06:45:11;24.75;;;7.53;;
52057;SDS011;38063;53.210;6.504;2024-02-21T06:47:37;24.75;;;6.35;;
52057;SDS011;38063;53.210;6.504;2024-02-21T06:50:03;29.50;;;7.28;;
52057;SDS011;38063;53.210;6.504;2024-02-21T06:52:29;24.98;;;6.97;;
52057;SDS011;38063;53.210;6.504;2024-02-21T06:54:56;25.70;;;6.78;;
52057;SDS011;38063;53.210;6.504;2024-02-21T06:57:22;21.58;;;7.40;;
52057;SDS011;38063;53.210;6.504;2024-02-21T06:59:48;23.20;;;7.45;;
52057;SDS011;38063;53.210;6.504;2024-02-21T07:02:13;28.42;;;8.15;;
52057;SDS011;38063;53.210;6.504;2024-02-21T07:04:39;27.38;;;7.78;;
52057;SDS011;38063;53.210;6.504;2024-02-21T07:07:05;25.58;;;7.75;;
52057;SDS011;38063;53.210;6.504;2024-02-21T07:09:30;27.48;;;8.25;;
52057;SDS011;38063;53.210;6.504;2024-02-21T07:11:59;27.63;;;8.10;;
52057;SDS011;38063;53.210;6.504;2024-02-21T07:14:25;29.40;;;8.20;;
52057;SDS011;38063;53.210;6.504;2024-02-21T07:16:53;30.38;;;9.45;;
52057;SDS011;38063;53.210;6.504;2024-02-21T07:19:19;36.33;;;9.88;;
52057;SDS011;38063;53.210;6.504;2024-02-21T07:21:45;42.15;;;11.30;;
52057;SDS011;38063;53.210;6.504;2024-02-21T07:24:10;48.05;;;13.77;;
52057;SDS011;38063;53.210;6.504;2024-02-21T07:26:37;41.25;;;13.07;;
52057;SDS011;38063;53.210;6.504;2024-02-21T07:29:05;43.95;;;12.98;;
52057;SDS011;38063;53.210;6.504;2024-02-21T07:31:31;49.88;;;13.70;;
52057;SDS011;38063;53.210;6.504;2024-02-21T07:34:03;57.35;;;14.88;;
52057;SDS011;38063;53.210;6.504;2024-02-21T07:36:29;48.50;;;14.50;;
52057;SDS011;38063;53.210;6.504;2024-02-21T07:38:57;52.35;;;13.82;;
52057;SDS011;38063;53.210;6.504;2024-02-21T07:41:23;55.75;;;14.73;;
52057;SDS011;38063;53.210;6.504;2024-02-21T07:43:49;52.70;;;15.07;;
52057;SDS011;38063;53.210;6.504;2024-02-21T07:46:15;40.97;;;12.95;;
52057;SDS011;38063;53.210;6.504;2024-02-21T07:48:41;41.60;;;13.18;;
52057;SDS011;38063;53.210;6.504;2024-02-21T07:51:06;43.95;;;11.65;;
52057;SDS011;38063;53.210;6.504;2024-02-21T07:53:32;43.33;;;10.98;;
52057;SDS011;38063;53.210;6.504;2024-02-21T07:55:57;39.95;;;11.15;;
52057;SDS011;38063;53.210;6.504;2024-02-21T07:58:23;38.65;;;10.55;;
52057;SDS011;38063;53.210;6.504;2024-02-21T08:00:49;40.13;;;9.65;;
52057;SDS011;38063;53.210;6.504;2024-02-21T08:03:14;29.60;;;7.90;;
52057;SDS011;38063;53.210;6.504;2024-02-21T08:05:42;25.42;;;7.75;;
52057;SDS011;38063;53.210;6.504;2024-02-21T08:08:08;32.85;;;7.93;;
52057;SDS011;38063;53.210;6.504;2024-02-21T08:10:34;27.77;;;7.38;;
52057;SDS011;38063;53.210;6.504;2024-02-21T08:13:00;28.55;;;7.43;;
52057;SDS011;38063;53.210;6.504;2024-02-21T08:15:25;25.85;;;7.63;;
52057;SDS011;38063;53.210;6.504;2024-02-21T08:17:55;25.20;;;6.30;;
52057;SDS011;38063;53.210;6.504;2024-02-21T08:20:24;23.85;;;6.85;;
52057;SDS011;38063;53.210;6.504;2024-02-21T08:22:50;22.98;;;6.45;;
52057;SDS011;38063;53.210;6.504;2024-02-21T08:25:16;20.70;;;6.10;;
52057;SDS011;38063;53.210;6.504;2024-02-21T08:27:41;22.80;;;5.95;;
52057;SDS011;38063;53.210;6.504;2024-02-21T08:30:07;21.17;;;5.75;;
52057;SDS011;38063;53.210;6.504;2024-02-21T08:32:33;19.83;;;5.75;;
52057;SDS011;38063;53.210;6.504;2024-02-21T08:35:01;24.65;;;6.07;;
52057;SDS011;38063;53.210;6.504;2024-02-21T08:37:27;22.38;;;6.13;;
52057;SDS011;38063;53.210;6.504;2024-02-21T08:39:53;21.02;;;6.75;;
52057;SDS011;38063;53.210;6.504;2024-02-21T08:42:18;17.15;;;7.07;;
52057;SDS011;38063;53.210;6.504;2024-02-21T08:44:44;15.20;;;6.47;;
52057;SDS011;38063;53.210;6.504;2024-02-21T08:47:10;22.52;;;7.30;;
52057;SDS011;38063;53.210;6.504;2024-02-21T08:49:36;20.63;;;7.05;;
52057;SDS011;38063;53.210;6.504;2024-02-21T08:52:02;21.77;;;7.03;;
52057;SDS011;38063;53.210;6.504;2024-02-21T08:54:28;20.63;;;8.60;;
52057;SDS011;38063;53.210;6.504;2024-02-21T08:56:54;17.45;;;7.22;;
52057;SDS011;38063;53.210;6.504;2024-02-21T08:59:20;26.10;;;8.93;;
52057;SDS011;38063;53.210;6.504;2024-02-21T09:01:46;25.15;;;9.32;;
52057;SDS011;38063;53.210;6.504;2024-02-21T09:04:12;26.27;;;9.93;;
52057;SDS011;38063;53.210;6.504;2024-02-21T09:06:37;24.58;;;10.15;;
52057;SDS011;38063;53.210;6.504;2024-02-21T09:09:07;23.10;;;10.15;;
52057;SDS011;38063;53.210;6.504;2024-02-21T09:11:35;25.30;;;10.73;;
52057;SDS011;38063;53.210;6.504;2024-02-21T09:14:00;23.38;;;10.20;;
52057;SDS011;38063;53.210;6.504;2024-02-21T09:16:29;25.25;;;11.20;;
52057;SDS011;38063;53.210;6.504;2024-02-21T09:18:57;26.27;;;10.73;;
52057;SDS011;38063;53.210;6.504;2024-02-21T09:21:23;24.05;;;10.35;;
52057;SDS011;38063;53.210;6.504;2024-02-21T09:23:49;22.77;;;11.70;;
52057;SDS011;38063;53.210;6.504;2024-02-21T09:26:15;34.80;;;12.82;;
52057;SDS011;38063;53.210;6.504;2024-02-21T09:28:42;36.25;;;12.75;;
52057;SDS011;38063;53.210;6.504;2024-02-21T09:31:09;25.02;;;12.07;;
52057;SDS011;38063;53.210;6.504;2024-02-21T09:33:35;23.55;;;13.10;;
52057;SDS011;38063;53.210;6.504;2024-02-21T09:36:01;30.80;;;13.55;;
52057;SDS011;38063;53.210;6.504;2024-02-21T09:38:26;29.50;;;13.50;;
52057;SDS011;38063;53.210;6.504;2024-02-21T09:40:58;26.92;;;13.32;;
52057;SDS011;38063;53.210;6.504;2024-02-21T09:43:28;27.75;;;13.48;;
52057;SDS011;38063;53.210;6.504;2024-02-21T09:45:55;29.35;;;13.60;;
52057;SDS011;38063;53.210;6.504;2024-02-21T09:50:57;30.33;;;14.15;;
52057;SDS011;38063;53.210;6.504;2024-02-21T09:53:24;32.53;;;14.57;;
52057;SDS011;38063;53.210;6.504;2024-02-21T09:55:51;27.10;;;14.73;;
52057;SDS011;38063;53.210;6.504;2024-02-21T09:58:17;31.33;;;13.95;;
52057;SDS011;38063;53.210;6.504;2024-02-21T10:00:43;25.35;;;12.90;;
52057;SDS011;38063;53.210;6.504;2024-02-21T10:03:09;25.10;;;12.52;;
52057;SDS011;38063;53.210;6.504;2024-02-21T10:05:35;32.58;;;14.57;;
52057;SDS011;38063;53.210;6.504;2024-02-21T10:08:01;22.83;;;12.73;;
52057;SDS011;38063;53.210;6.504;2024-02-21T10:10:28;29.17;;;13.35;;
52057;SDS011;38063;53.210;6.504;2024-02-21T10:12:55;28.23;;;13.90;;
52057;SDS011;38063;53.210;6.504;2024-02-21T10:15:21;27.40;;;12.82;;
52057;SDS011;38063;53.210;6.504;2024-02-21T10:17:49;22.42;;;12.98;;
52057;SDS011;38063;53.210;6.504;2024-02-21T10:20:25;27.83;;;13.50;;
52057;SDS011;38063;53.210;6.504;2024-02-21T10:23:00;25.08;;;13.63;;
52057;SDS011;38063;53.210;6.504;2024-02-21T10:25:36;25.45;;;13.90;;
52057;SDS011;38063;53.210;6.504;2024-02-21T10:28:08;27.80;;;13.88;;
52057;SDS011;38063;53.210;6.504;2024-02-21T10:30:36;27.30;;;14.13;;
52057;SDS011;38063;53.210;6.504;2024-02-21T10:33:02;27.45;;;14.43;;
52057;SDS011;38063;53.210;6.504;2024-02-21T10:35:31;28.23;;;15.23;;
52057;SDS011;38063;53.210;6.504;2024-02-21T10:37:58;28.98;;;16.83;;
52057;SDS011;38063;53.210;6.504;2024-02-21T10:40:28;30.58;;;16.55;;
52057;SDS011;38063;53.210;6.504;2024-02-21T10:42:58;30.05;;;17.02;;
52057;SDS011;38063;53.210;6.504;2024-02-21T10:45:31;28.73;;;16.65;;
52057;SDS011;38063;53.210;6.504;2024-02-21T10:48:07;33.95;;;16.35;;
52057;SDS011;38063;53.210;6.504;2024-02-21T10:50:38;31.92;;;16.83;;
52057;SDS011;38063;53.210;6.504;2024-02-21T10:53:41;30.83;;;16.77;;
52057;SDS011;38063;53.210;6.504;2024-02-21T10:56:23;38.63;;;19.42;;
52057;SDS011;38063;53.210;6.504;2024-02-21T10:58:50;33.53;;;16.63;;
52057;SDS011;38063;53.210;6.504;2024-02-21T11:01:18;32.13;;;18.17;;
52057;SDS011;38063;53.210;6.504;2024-02-21T11:03:47;33.20;;;17.10;;
52057;SDS011;38063;53.210;6.504;2024-02-21T11:06:17;35.95;;;17.85;;
52057;SDS011;38063;53.210;6.504;2024-02-21T11:08:44;33.22;;;17.45;;
52057;SDS011;38063;53.210;6.504;2024-02-21T11:11:11;28.83;;;16.75;;
52057;SDS011;38063;53.210;6.504;2024-02-21T11:13:42;32.40;;;17.10;;
52057;SDS011;38063;53.210;6.504;2024-02-21T11:16:09;33.22;;;18.33;;
52057;SDS011;38063;53.210;6.504;2024-02-21T11:18:37;31.05;;;15.57;;
52057;SDS011;38063;53.210;6.504;2024-02-21T11:21:03;28.13;;;16.13;;
52057;SDS011;38063;53.210;6.504;2024-02-21T11:23:31;27.98;;;16.45;;
52057;SDS011;38063;53.210;6.504;2024-02-21T11:26:07;30.30;;;16.80;;
52057;SDS011;38063;53.210;6.504;2024-02-21T11:33:52;35.13;;;14.70;;
52057;SDS011;38063;53.210;6.504;2024-02-21T11:36:25;25.10;;;14.15;;
52057;SDS011;38063;53.210;6.504;2024-02-21T11:38:52;28.80;;;15.23;;
52057;SDS011;38063;53.210;6.504;2024-02-21T11:41:20;26.10;;;13.82;;
52057;SDS011;38063;53.210;6.504;2024-02-21T11:43:48;22.33;;;13.02;;
52057;SDS011;38063;53.210;6.504;2024-02-21T11:46:14;21.92;;;12.70;;
52057;SDS011;38063;53.210;6.504;2024-02-21T11:48:41;25.27;;;12.00;;
52057;SDS011;38063;53.210;6.504;2024-02-21T11:51:09;16.70;;;11.25;;
52057;SDS011;38063;53.210;6.504;2024-02-21T11:53:36;19.50;;;11.98;;
52057;SDS011;38063;53.210;6.504;2024-02-21T11:56:02;19.73;;;11.63;;
52057;SDS011;38063;53.210;6.504;2024-02-21T11:58:27;19.08;;;10.57;;
52057;SDS011;38063;53.210;6.504;2024-02-21T12:00:54;18.48;;;11.65;;
52057;SDS011;38063;53.210;6.504;2024-02-21T12:03:20;19.35;;;10.60;;
52057;SDS011;38063;53.210;6.504;2024-02-21T12:05:46;21.38;;;11.20;;
52057;SDS011;38063;53.210;6.504;2024-02-21T12:08:11;16.30;;;10.30;;
52057;SDS011;38063;53.210;6.504;2024-02-21T12:10:37;18.50;;;11.05;;
52057;SDS011;38063;53.210;6.504;2024-02-21T12:13:09;21.88;;;10.13;;
52057;SDS011;38063;53.210;6.504;2024-02-21T12:15:35;17.75;;;10.10;;
52057;SDS011;38063;53.210;6.504;2024-02-21T12:18:00;16.20;;;9.77;;
52057;SDS011;38063;53.210;6.504;2024-02-21T12:20:26;18.63;;;10.38;;
52057;SDS011;38063;53.210;6.504;2024-02-21T12:22:52;19.75;;;10.48;;
52057;SDS011;38063;53.210;6.504;2024-02-21T12:25:19;15.18;;;10.15;;
52057;SDS011;38063;53.210;6.504;2024-02-21T12:27:51;24.02;;;10.55;;
52057;SDS011;38063;53.210;6.504;2024-02-21T12:30:17;19.40;;;9.82;;
52057;SDS011;38063;53.210;6.504;2024-02-21T12:32:44;19.17;;;9.55;;
52057;SDS011;38063;53.210;6.504;2024-02-21T12:35:10;15.55;;;9.23;;
52057;SDS011;38063;53.210;6.504;2024-02-21T12:37:37;18.85;;;9.88;;
52057;SDS011;38063;53.210;6.504;2024-02-21T12:40:04;17.00;;;9.30;;
52057;SDS011;38063;53.210;6.504;2024-02-21T12:42:32;15.60;;;8.43;;
52057;SDS011;38063;53.210;6.504;2024-02-21T12:45:01;14.65;;;8.60;;
52057;SDS011;38063;53.210;6.504;2024-02-21T12:47:28;15.23;;;8.32;;
52057;SDS011;38063;53.210;6.504;2024-02-21T12:49:53;14.77;;;7.97;;
52057;SDS011;38063;53.210;6.504;2024-02-21T12:52:19;18.65;;;9.20;;
52057;SDS011;38063;53.210;6.504;2024-02-21T12:54:45;16.27;;;8.02;;
52057;SDS011;38063;53.210;6.504;2024-02-21T12:57:11;20.63;;;8.23;;
52057;SDS011;38063;53.210;6.504;2024-02-21T12:59:36;16.70;;;8.23;;
52057;SDS011;38063;53.210;6.504;2024-02-21T13:02:02;17.45;;;7.93;;
52057;SDS011;38063;53.210;6.504;2024-02-21T13:04:27;16.75;;;7.47;;
52057;SDS011;38063;53.210;6.504;2024-02-21T13:06:53;15.27;;;8.23;;
52057;SDS011;38063;53.210;6.504;2024-02-21T13:09:20;13.50;;;7.35;;
52057;SDS011;38063;53.210;6.504;2024-02-21T13:11:46;11.98;;;7.60;;
52057;SDS011;38063;53.210;6.504;2024-02-21T13:14:12;12.55;;;7.20;;
52057;SDS011;38063;53.210;6.504;2024-02-21T13:16:38;12.75;;;6.93;;
52057;SDS011;38063;53.210;6.504;2024-02-21T13:19:06;11.63;;;7.32;;
52057;SDS011;38063;53.210;6.504;2024-02-21T13:21:33;13.43;;;7.20;;
52057;SDS011;38063;53.210;6.504;2024-02-21T13:24:00;11.68;;;6.07;;
52057;SDS011;38063;53.210;6.504;2024-02-21T13:26:26;11.93;;;6.25;;
52057;SDS011;38063;53.210;6.504;2024-02-21T13:28:52;11.57;;;6.43;;
52057;SDS011;38063;53.210;6.504;2024-02-21T13:31:18;11.32;;;6.25;;
52057;SDS011;38063;53.210;6.504;2024-02-21T13:33:44;9.57;;;6.05;;
52057;SDS011;38063;53.210;6.504;2024-02-21T13:36:10;11.95;;;6.30;;
52057;SDS011;38063;53.210;6.504;2024-02-21T13:38:36;11.73;;;5.60;;
52057;SDS011;38063;53.210;6.504;2024-02-21T13:41:03;9.48;;;6.07;;
52057;SDS011;38063;53.210;6.504;2024-02-21T13:43:30;10.60;;;5.70;;
52057;SDS011;38063;53.210;6.504;2024-02-21T13:45:59;10.75;;;5.97;;
52057;SDS011;38063;53.210;6.504;2024-02-21T13:48:27;11.00;;;6.20;;
52057;SDS011;38063;53.210;6.504;2024-02-21T13:50:54;10.85;;;5.82;;
52057;SDS011;38063;53.210;6.504;2024-02-21T13:53:20;10.10;;;5.70;;
52057;SDS011;38063;53.210;6.504;2024-02-21T13:55:46;11.65;;;6.10;;
52057;SDS011;38063;53.210;6.504;2024-02-21T13:58:12;8.35;;;5.15;;
52057;SDS011;38063;53.210;6.504;2024-02-21T14:00:38;8.18;;;5.35;;
52057;SDS011;38063;53.210;6.504;2024-02-21T14:03:03;11.40;;;5.28;;
52057;SDS011;38063;53.210;6.504;2024-02-21T14:05:29;10.00;;;5.32;;
52057;SDS011;38063;53.210;6.504;2024-02-21T14:07:55;11.05;;;5.35;;
52057;SDS011;38063;53.210;6.504;2024-02-21T14:10:21;8.20;;;5.25;;
52057;SDS011;38063;53.210;6.504;2024-02-21T14:12:47;10.20;;;5.60;;
52057;SDS011;38063;53.210;6.504;2024-02-21T14:15:13;9.25;;;5.07;;
52057;SDS011;38063;53.210;6.504;2024-02-21T14:17:39;9.05;;;5.00;;
52057;SDS011;38063;53.210;6.504;2024-02-21T14:20:06;9.52;;;5.10;;
52057;SDS011;38063;53.210;6.504;2024-02-21T14:22:32;11.80;;;5.15;;
52057;SDS011;38063;53.210;6.504;2024-02-21T14:24:59;11.07;;;5.55;;
52057;SDS011;38063;53.210;6.504;2024-02-21T14:27:25;14.27;;;6.45;;
52057;SDS011;38063;53.210;6.504;2024-02-21T14:29:51;7.70;;;4.97;;
52057;SDS011;38063;53.210;6.504;2024-02-21T14:32:17;7.88;;;5.00;;
52057;SDS011;38063;53.210;6.504;2024-02-21T14:34:43;9.80;;;5.30;;